Time;durP1;ratioP1;P1;durP2;ratioP2;P2;SDS_P1;SDS_P2;PMS_P1;PMS_P2;Temp;Humidity;BMP_temperature;BMP_pressure;BME280_temperature;BME280_humidity;BME280_pressure;Samples;Min_cycle;Max_cycle;Signal;HPM_P1;HPM_P2
2023/01/14 00:01:13;;;;;;;;;;;;;;;8.05;74.29;100810.72;5094213;28;19966;-73
2023/01/14 00:04:16;;;;;;;;;;;;;;;8.12;76.16;100817.41;5094151;28;19982;-73
2023/01/14 00:07:19;;;;;;;;;;;;;;;7.99;76.55;100823.97;5094223;28;19973;-74
2023/01/14 00:10:22;;;;;;;;;;;;;;;7.93;75.85;100819.84;5094170;28;19961;-73
2023/01/14 00:13:25;;;;;;;;;;;;;;;7.96;75.69;100831.91;5094094;28;19924;-73
2023/01/14 00:16:28;;;;;;;;;;;;;;;7.84;76.31;100829.72;5094212;28;19919;-73
2023/01/14 00:19:31;;;;;;;;;;;;;;;7.84;76.02;100829.72;5093882;28;19920;-73
2023/01/14 00:22:34;;;;;;;;;;;;;;;8.01;76.01;100826.50;5093806;28;19918;-74
2023/01/14 00:25:38;;;;;;;;;;;;;;;7.99;74.74;100823.97;5094191;28;19918;-74
2023/01/14 00:28:45;;;;;;;;;;;;;;;8.25;74.60;100827.38;5081517;28;19966;-74
2023/01/14 00:31:48;;;;;;;;;;;;;;;8.13;74.99;100820.84;5093702;28;19938;-74
2023/01/14 00:34:51;;;;;;;;;;;;;;;8.30;74.43;100812.41;5093938;28;19956;-73
2023/01/14 00:37:55;;;;;;;;;;;;;;;8.20;73.11;100804.09;5081165;28;20030;-74
2023/01/14 00:41:01;;;;;;;;;;;;;;;8.11;74.55;100807.06;5079971;28;20032;-75
2023/01/14 00:44:04;;;;;;;;;;;;;;;8.18;74.30;100805.91;5081030;28;20405;-74
2023/01/14 00:47:07;;;;;;;;;;;;;;;8.13;74.18;100803.47;5093579;28;19965;-74
2023/01/14 00:50:11;;;;;;;;;;;;;;;7.92;74.77;100806.88;5080798;28;19969;-74
2023/01/14 00:53:14;;;;;;;;;;;;;;;7.86;74.69;100799.28;5093662;28;19956;-74
2023/01/14 00:56:18;;;;;;;;;;;;;;;8.07;75.19;100806.31;5093174;28;19922;-74
2023/01/14 00:59:22;;;;;;;;;;;;;;;7.82;74.82;100795.13;5093866;28;19973;-74
2023/01/14 01:02:25;;;;;;;;;;;;;;;7.87;74.09;100798.38;5093353;28;19918;-74
2023/01/14 01:05:32;;;;;;;;;;;;;;;8.13;74.42;100800.84;5092710;28;20339;-74
2023/01/14 01:08:35;;;;;;;;;;;;;;;7.85;73.90;100805.41;5093143;28;20017;-74
2023/01/14 01:11:38;;;;;;;;;;;;;;;7.86;73.47;100814.91;5080152;28;20036;-74
2023/01/14 01:14:41;;;;;;;;;;;;;;;7.80;74.96;100812.53;5093192;28;19978;-74
2023/01/14 01:17:45;;;;;;;;;;;;;;;7.83;74.17;100817.63;5092910;28;20454;-73
2023/01/14 01:20:48;;;;;;;;;;;;;;;7.83;72.52;100821.06;5092706;28;19934;-73
2023/01/14 01:23:51;;;;;;;;;;;;;;;7.79;73.65;100829.06;5079885;28;19935;-73
2023/01/14 01:26:54;;;;;;;;;;;;;;;7.77;73.12;100833.47;5092498;28;20288;-73
2023/01/14 01:29:57;;;;;;;;;;;;;;;7.90;72.77;100852.94;5092664;28;20412;-73
2023/01/14 01:33:01;;;;;;;;;;;;;;;7.90;72.65;100845.97;5093147;28;20394;-73
2023/01/14 01:36:06;;;;;;;;;;;;;;;8.01;72.58;100843.00;5080199;28;19934;-73
2023/01/14 01:39:09;;;;;;;;;;;;;;;7.99;72.75;100842.19;5072621;28;19919;-73
2023/01/14 01:42:13;;;;;;;;;;;;;;;7.97;72.60;100846.59;5071041;28;19919;-73
2023/01/14 01:45:28;;;;;;;;;;;;;;;7.95;72.29;100853.63;5072656;28;19923;-73
2023/01/14 01:48:40;;;;;;;;;;;;;;;7.62;72.82;100858.28;5071358;28;20341;-73
2023/01/14 01:51:49;;;;;;;;;;;;;;;7.82;73.13;100855.84;5071333;28;19923;-72
2023/01/14 01:54:58;;;;;;;;;;;;;;;7.97;73.02;100862.22;5072482;28;19919;-73
2023/01/14 01:58:04;;;;;;;;;;;;;;;8.07;73.04;100857.53;5072706;28;20329;-72
2023/01/14 02:01:07;;;;;;;;;;;;;;;8.16;73.70;100849.38;5072551;28;19919;-73
2023/01/14 02:04:10;;;;;;;;;;;;;;;8.13;73.05;100841.69;5079191;28;19965;-74
2023/01/14 02:07:15;;;;;;;;;;;;;;;8.04;73.59;100853.31;5092032;28;19978;-74
2023/01/14 02:10:18;;;;;;;;;;;;;;;8.05;72.39;100849.78;5091946;28;20445;-73
2023/01/14 02:13:23;;;;;;;;;;;;;;;7.81;72.60;100848.06;5079946;28;19962;-73
2023/01/14 02:16:39;;;;;;;;;;;;;;;7.83;74.32;100854.06;5092364;28;19957;-74
2023/01/14 02:20:00;;;;;;;;;;;;;;;7.84;73.85;100860.97;5092405;28;19957;-73
2023/01/14 02:23:34;;;;;;;;;;;;;;;8.01;74.00;100874.25;5092402;28;19923;-73
2023/01/14 02:26:53;;;;;;;;;;;;;;;7.83;73.38;100865.34;5079531;28;19919;-73
2023/01/14 02:29:58;;;;;;;;;;;;;;;7.86;72.44;100864.38;5079203;28;19927;-73
2023/01/14 02:33:15;;;;;;;;;;;;;;;7.75;73.42;100871.72;5079500;28;19918;-73
2023/01/14 02:36:28;;;;;;;;;;;;;;;7.81;73.00;100869.72;5079620;28;19974;-73
2023/01/14 02:39:40;;;;;;;;;;;;;;;7.81;72.72;100855.88;5079889;28;19919;-73
2023/01/14 02:46:13;;;;;;;;;;;;;;;7.82;72.63;100857.59;5079320;28;19918;-73
2023/01/14 02:49:20;;;;;;;;;;;;;;;7.73;72.75;100857.91;5091925;28;19942;-73
2023/01/14 02:52:24;;;;;;;;;;;;;;;7.72;73.62;100851.00;5079334;28;19970;-73
2023/01/14 02:55:35;;;;;;;;;;;;;;;7.84;73.00;100840.16;5079346;28;20344;-73
2023/01/14 02:58:49;;;;;;;;;;;;;;;8.00;72.30;100838.69;5079444;28;19919;-74
2023/01/14 03:02:09;;;;;;;;;;;;;;;7.90;73.06;100840.78;5079008;28;19995;-73
2023/01/14 03:05:15;;;;;;;;;;;;;;;7.81;73.44;100837.66;5083475;28;19918;-73
2023/01/14 03:08:28;;;;;;;;;;;;;;;7.66;73.81;100832.09;5095639;28;20023;-73
2023/01/14 03:11:54;;;;;;;;;;;;;;;7.40;75.15;100825.22;5082778;28;19922;-73
2023/01/14 03:15:09;;;;;;;;;;;;;;;7.39;75.25;100818.28;5082952;28;20012;-73
2023/01/14 03:18:19;;;;;;;;;;;;;;;7.37;74.99;100808.81;5083329;28;20391;-74
2023/01/14 03:21:28;;;;;;;;;;;;;;;6.90;77.48;100799.13;5095420;28;20335;-73
2023/01/14 03:24:33;;;;;;;;;;;;;;;6.80;77.69;100799.50;5082645;28;19958;-73
2023/01/14 03:27:39;;;;;;;;;;;;;;;6.93;77.67;100804.22;5082622;28;20343;-73
2023/01/14 03:30:47;;;;;;;;;;;;;;;7.10;76.75;100803.66;5082439;28;20387;-73
2023/01/14 03:33:54;;;;;;;;;;;;;;;7.03;76.21;100796.97;5082584;28;19919;-73
2023/01/14 03:37:00;;;;;;;;;;;;;;;6.92;76.53;100791.28;5082514;28;19919;-73
2023/01/14 03:40:05;;;;;;;;;;;;;;;7.05;76.09;100782.19;5094763;28;19965;-74
2023/01/14 03:43:23;;;;;;;;;;;;;;;7.01;76.59;100777.97;5094886;28;19954;-74
2023/01/14 03:46:27;;;;;;;;;;;;;;;6.92;76.64;100775.66;5094383;28;19926;-73
2023/01/14 03:49:30;;;;;;;;;;;;;;;6.94;76.40;100774.72;5094676;28;19935;-73
2023/01/14 03:52:48;;;;;;;;;;;;;;;7.00;75.96;100771.06;5094862;28;19919;-73
2023/01/14 03:56:27;;;;;;;;;;;;;;;6.61;76.66;100781.03;5094754;28;20391;-73
2023/01/14 03:59:43;;;;;;;;;;;;;;;6.80;76.23;100786.50;5015760;28;20045;-73
2023/01/14 04:02:46;;;;;;;;;;;;;;;6.72;76.58;100781.53;5094599;28;19919;-73
2023/01/14 04:05:50;;;;;;;;;;;;;;;6.73;77.36;100786.69;5094653;28;19919;-73
2023/01/14 04:08:54;;;;;;;;;;;;;;;6.85;75.97;100781.97;5094423;28;19927;-73
2023/01/14 04:11:57;;;;;;;;;;;;;;;6.87;76.02;100762.84;5094400;28;19923;-73
2023/01/14 04:18:21;;;;;;;;;;;;;;;6.55;77.25;100763.88;5094669;28;19935;-73
2023/01/14 04:21:24;;;;;;;;;;;;;;;6.51;77.88;100770.09;5093961;28;19981;-73
2023/01/14 04:24:28;;;;;;;;;;;;;;;6.09;79.25;100759.25;5081750;28;19919;-73
2023/01/14 04:27:31;;;;;;;;;;;;;;;6.21;79.74;100757.13;5093916;28;20273;-74
2023/01/14 04:30:34;;;;;;;;;;;;;;;6.07;80.69;100774.03;5093857;28;19923;-73
2023/01/14 04:33:37;;;;;;;;;;;;;;;6.28;80.17;100774.22;5093926;28;19919;-73
2023/01/14 04:36:40;;;;;;;;;;;;;;;6.52;79.10;100763.97;5093775;28;19919;-73
2023/01/14 04:39:43;;;;;;;;;;;;;;;6.38;79.46;100766.16;5094150;28;19941;-73
2023/01/14 04:42:46;;;;;;;;;;;;;;;6.68;78.62;100753.94;5093687;28;19966;-73
2023/01/14 04:45:50;;;;;;;;;;;;;;;6.74;77.86;100751.16;5093170;28;19958;-74
2023/01/14 04:48:53;;;;;;;;;;;;;;;6.73;77.71;100755.50;5093282;28;20296;-74
2023/01/14 04:51:56;;;;;;;;;;;;;;;6.66;77.84;100753.13;5080790;28;19922;-74
2023/01/14 04:54:59;;;;;;;;;;;;;;;6.62;78.46;100747.19;5093238;28;19965;-73
2023/01/14 04:58:02;;;;;;;;;;;;;;;6.37;78.79;100756.66;5093508;28;19973;-73
2023/01/14 05:01:04;;;;;;;;;;;;;;;6.51;78.52;100754.50;5093215;28;19919;-73
2023/01/14 05:04:07;;;;;;;;;;;;;;;6.71;78.07;100746.06;5093473;28;19966;-73
2023/01/14 05:07:11;;;;;;;;;;;;;;;6.67;78.32;100747.06;5093259;28;19918;-73
2023/01/14 05:10:14;;;;;;;;;;;;;;;6.74;78.22;100749.41;5093055;28;19927;-73
2023/01/14 05:13:17;;;;;;;;;;;;;;;6.81;77.94;100746.59;5093207;28;19918;-73
2023/01/14 05:16:22;;;;;;;;;;;;;;;6.99;77.58;100744.25;5093097;28;19919;-73
2023/01/14 05:19:25;;;;;;;;;;;;;;;6.79;77.92;100738.00;5093149;28;20348;-73
2023/01/14 05:22:28;;;;;;;;;;;;;;;6.87;77.80;100734.25;5087548;28;19938;-73
2023/01/14 05:25:34;;;;;;;;;;;;;;;6.79;78.51;100725.00;5087373;28;19931;-73
2023/01/14 05:28:39;;;;;;;;;;;;;;;6.98;78.07;100713.91;5087194;28;19920;-73
2023/01/14 05:31:43;;;;;;;;;;;;;;;7.05;77.96;100713.72;5068675;28;20032;-73
2023/01/14 05:34:46;;;;;;;;;;;;;;;7.00;78.67;100711.28;5068564;28;19918;-73
2023/01/14 05:37:50;;;;;;;;;;;;;;;6.72;79.62;100706.16;5069699;28;20050;-73
2023/01/14 05:40:53;;;;;;;;;;;;;;;6.91;79.32;100702.03;5069473;28;19947;-73
2023/01/14 05:47:18;;;;;;;;;;;;;;;7.08;78.57;100685.00;5047812;28;19970;-73
2023/01/14 05:50:22;;;;;;;;;;;;;;;6.96;78.55;100674.16;5047981;28;19974;-73
2023/01/14 05:53:27;;;;;;;;;;;;;;;7.03;79.05;100679.97;5048284;28;19919;-73
2023/01/14 05:56:30;;;;;;;;;;;;;;;6.99;78.91;100673.19;5048114;28;19920;-74
2023/01/14 05:59:33;;;;;;;;;;;;;;;7.17;78.49;100669.94;5048867;28;19920;-73
2023/01/14 06:09:20;;;;;;;;;;;;;;;7.08;78.81;100670.25;5049648;28;19947;-73
2023/01/14 06:12:57;;;;;;;;;;;;;;;6.98;79.40;100668.88;5064293;28;19974;-73
2023/01/14 06:15:57;;;;;;;;;;;;;;;7.13;78.97;100660.53;5035245;28;19919;-73
2023/01/14 06:19:01;;;;;;;;;;;;;;;7.07;79.28;100652.97;5047713;28;19966;-73
2023/01/14 06:22:06;;;;;;;;;;;;;;;7.21;78.89;100657.66;5048240;28;19963;-73
2023/01/14 06:25:09;;;;;;;;;;;;;;;7.25;78.94;100651.47;5048112;28;19939;-73
2023/01/14 06:28:13;;;;;;;;;;;;;;;7.21;79.25;100642.94;5050685;28;20290;-73
2023/01/14 06:31:21;;;;;;;;;;;;;;;7.12;79.42;100643.25;5047235;28;19931;-73
2023/01/14 06:34:26;;;;;;;;;;;;;;;6.98;80.22;100630.72;5036025;28;20016;-73
2023/01/14 06:37:30;;;;;;;;;;;;;;;7.07;80.07;100628.72;5050914;28;19920;-73
2023/01/14 06:40:32;;;;;;;;;;;;;;;6.80;80.96;100622.75;5054644;28;20305;-74
2023/01/14 06:43:36;;;;;;;;;;;;;;;6.94;80.46;100620.50;5054588;28;19935;-73
2023/01/14 06:46:39;;;;;;;;;;;;;;;7.03;80.19;100608.94;4685103;28;10001131;-72
2023/01/14 06:49:42;;;;;;;;;;;;;;;7.08;79.59;100610.44;5035293;28;20039;-74
2023/01/14 06:53:13;;;;;;;;;;;;;;;7.06;79.74;100607.06;5054145;28;19919;-74
2023/01/14 06:56:17;;;;;;;;;;;;;;;6.75;80.56;100600.34;5037960;28;20380;-74
2023/01/14 06:59:20;;;;;;;;;;;;;;;6.89;80.72;100599.03;5054672;28;19920;-74
2023/01/14 07:02:23;;;;;;;;;;;;;;;7.04;79.42;100598.47;5054170;28;20008;-74
2023/01/14 07:05:26;;;;;;;;;;;;;;;6.79;80.85;100595.06;5030231;28;20014;-74
2023/01/14 07:08:29;;;;;;;;;;;;;;;7.01;79.79;100590.78;5054440;28;20348;-74
2023/01/14 07:11:33;;;;;;;;;;;;;;;6.90;80.56;100578.19;5053966;28;19926;-74
2023/01/14 07:14:36;;;;;;;;;;;;;;;7.14;79.77;100568.63;5054524;28;20067;-76
2023/01/14 07:17:39;;;;;;;;;;;;;;;7.17;79.65;100571.09;5041771;28;19990;-73
2023/01/14 07:20:42;;;;;;;;;;;;;;;7.23;79.57;100568.28;5054175;28;20210;-73
2023/01/14 07:23:46;;;;;;;;;;;;;;;7.34;79.67;100561.81;5053212;28;19995;-76
2023/01/14 07:26:54;;;;;;;;;;;;;;;7.34;79.42;100549.69;5052712;28;19970;-75
2023/01/14 07:30:08;;;;;;;;;;;;;;;7.18;80.02;100549.41;5044203;28;20388;-75
2023/01/14 07:33:16;;;;;;;;;;;;;;;7.30;79.81;100542.03;5065035;28;20369;-76
2023/01/14 07:36:20;;;;;;;;;;;;;;;7.07;80.62;100528.16;5073498;28;19920;-75
2023/01/14 07:39:24;;;;;;;;;;;;;;;7.23;80.11;100521.47;5050078;28;19924;-76
2023/01/14 07:42:27;;;;;;;;;;;;;;;7.37;79.65;100527.88;5072574;28;19919;-75
2023/01/14 07:45:30;;;;;;;;;;;;;;;7.40;79.41;100519.97;5073759;28;20012;-75
2023/01/14 07:48:33;;;;;;;;;;;;;;;7.41;79.91;100524.28;5063205;28;20404;-74
2023/01/14 07:51:35;;;;;;;;;;;;;;;7.38;79.45;100512.22;5058336;28;20035;-75
2023/01/14 07:54:42;;;;;;;;;;;;;;;7.39;80.15;100519.13;5075391;28;19927;-76
2023/01/14 07:57:46;;;;;;;;;;;;;;;7.42;80.10;100516.41;5061424;28;19919;-75
2023/01/14 08:00:49;;;;;;;;;;;;;;;7.44;80.07;100504.19;5073612;28;19920;-80
2023/01/14 08:03:52;;;;;;;;;;;;;;;7.41;80.21;100503.47;5074999;28;20423;-72
2023/01/14 08:06:58;;;;;;;;;;;;;;;7.50;80.17;100503.09;5074262;28;20341;-73
2023/01/14 08:10:02;;;;;;;;;;;;;;;7.46;80.29;100496.31;5074007;28;19985;-74
2023/01/14 08:13:51;;;;;;;;;;;;;;;7.28;80.66;100491.84;5075011;28;19919;-75
2023/01/14 08:17:10;;;;;;;;;;;;;;;7.29;81.38;100473.56;5074482;28;20423;-74
2023/01/14 08:20:13;;;;;;;;;;;;;;;7.49;80.66;100475.38;5074181;28;19935;-76
2023/01/14 08:23:16;;;;;;;;;;;;;;;7.54;80.81;100463.03;5061698;28;19962;-75
2023/01/14 08:26:19;;;;;;;;;;;;;;;7.60;80.28;100462.78;5074062;28;19919;-75
2023/01/14 08:29:23;;;;;;;;;;;;;;;7.59;80.55;100455.88;5061422;28;19923;-75
2023/01/14 08:32:26;;;;;;;;;;;;;;;7.71;80.52;100453.69;5073709;28;20019;-74
2023/01/14 08:35:29;;;;;;;;;;;;;;;7.51;81.10;100447.56;5053871;28;19919;-75
2023/01/14 08:38:33;;;;;;;;;;;;;;;7.62;80.40;100434.09;5053822;28;19923;-75
2023/01/14 08:41:36;;;;;;;;;;;;;;;7.84;80.04;100428.84;5053976;28;20015;-76
2023/01/14 08:44:39;;;;;;;;;;;;;;;7.63;80.68;100436.63;5053775;28;19924;-74
2023/01/14 08:47:42;;;;;;;;;;;;;;;7.54;81.67;100437.03;5053485;28;19918;-76
2023/01/14 08:50:45;;;;;;;;;;;;;;;7.79;80.34;100430.81;5053354;28;20392;-78
2023/01/14 08:53:49;;;;;;;;;;;;;;;7.94;80.39;100419.72;5053754;28;19920;-77
2023/01/14 08:56:55;;;;;;;;;;;;;;;8.00;80.75;100424.66;5053321;28;19919;-78
2023/01/14 08:59:59;;;;;;;;;;;;;;;8.00;79.77;100418.59;5052498;28;19967;-78
2023/01/14 09:03:01;;;;;;;;;;;;;;;8.11;79.08;100414.63;5053150;28;20293;-78
2023/01/14 09:06:07;;;;;;;;;;;;;;;7.91;78.82;100404.22;5053200;28;19965;-78
2023/01/14 09:19:18;;;;;;;;;;;;;;;7.93;77.66;100381.59;5060631;28;20004;-79
2023/01/14 09:22:33;;;;;;;;;;;;;;;7.66;78.46;100375.81;5060579;28;19944;-78
2023/01/14 09:25:37;;;;;;;;;;;;;;;7.83;78.20;100375.94;5073061;28;19919;-78
2023/01/14 09:28:41;;;;;;;;;;;;;;;8.06;76.84;100361.06;5073096;28;19960;-78
2023/01/14 09:31:43;;;;;;;;;;;;;;;7.93;77.92;100345.97;5071990;28;20385;-77
2023/01/14 09:34:48;;;;;;;;;;;;;;;7.72;78.44;100343.47;5072727;28;20301;-77
2023/01/14 09:37:52;;;;;;;;;;;;;;;7.67;78.55;100339.31;5052554;28;19958;-77
2023/01/14 09:40:55;;;;;;;;;;;;;;;7.64;79.00;100336.00;5052290;28;19958;-77
2023/01/14 09:44:04;;;;;;;;;;;;;;;7.88;80.84;100328.84;5040267;28;20129;-78
2023/01/14 09:47:12;;;;;;;;;;;;;;;7.99;79.86;100328.41;5052595;28;19918;-77
2023/01/14 09:50:20;;;;;;;;;;;;;;;8.23;78.61;100321.22;5069686;28;19935;-78
2023/01/14 09:53:42;;;;;;;;;;;;;;;8.27;77.86;100313.22;5071740;28;19924;-80
2023/01/14 09:57:04;;;;;;;;;;;;;;;8.40;77.67;100295.28;5052132;28;20082;-76
2023/01/14 10:00:26;;;;;;;;;;;;;;;8.41;77.94;100294.34;5081560;28;20010;-77
2023/01/14 10:03:52;;;;;;;;;;;;;;;8.36;78.05;100304.13;5092529;28;20281;-77
2023/01/14 10:07:08;;;;;;;;;;;;;;;8.24;78.90;100300.31;5081259;28;19959;-78
2023/01/14 10:10:19;;;;;;;;;;;;;;;8.14;80.00;100286.88;5071837;28;19971;-78
2023/01/14 10:13:30;;;;;;;;;;;;;;;8.27;79.82;100281.13;5079021;28;19919;-78
2023/01/14 10:16:38;;;;;;;;;;;;;;;8.18;79.42;100271.13;5078621;28;19970;-76
2023/01/14 10:19:51;;;;;;;;;;;;;;;8.21;79.81;100265.78;5080146;28;19981;-76
2023/01/14 10:26:32;;;;;;;;;;;;;;;8.37;79.23;100244.13;5065977;28;19982;-75
2023/01/14 10:29:34;;;;;;;;;;;;;;;8.43;79.25;100231.78;5077943;28;20430;-75
2023/01/14 10:32:37;;;;;;;;;;;;;;;8.70;78.53;100226.97;5078222;28;20333;-76
2023/01/14 10:35:44;;;;;;;;;;;;;;;8.26;79.78;100211.69;5077832;28;20036;-76
2023/01/14 10:38:48;;;;;;;;;;;;;;;8.36;79.52;100202.53;5078248;28;19973;-75
2023/01/14 10:41:51;;;;;;;;;;;;;;;8.55;78.36;100198.16;5078386;28;19919;-74
2023/01/14 10:44:54;;;;;;;;;;;;;;;8.50;78.89;100178.44;5058141;28;19928;-74
2023/01/14 10:48:04;;;;;;;;;;;;;;;8.45;79.34;100156.97;5069222;28;19995;-74
2023/01/14 10:51:26;;;;;;;;;;;;;;;8.40;79.38;100157.19;5077750;28;19962;-74
2023/01/14 10:54:29;;;;;;;;;;;;;;;8.45;79.12;100143.94;5077504;28;20388;-72
2023/01/14 10:57:34;;;;;;;;;;;;;;;8.53;78.76;100147.84;5078150;28;20001;-76
2023/01/14 11:00:38;;;;;;;;;;;;;;;8.67;78.12;100139.34;5087601;28;20078;-77
2023/01/14 11:03:42;;;;;;;;;;;;;;;8.75;78.20;100131.16;5058312;28;20455;-75
2023/01/14 11:06:45;;;;;;;;;;;;;;;8.67;78.20;100107.22;5045471;28;19920;-76
2023/01/14 11:09:48;;;;;;;;;;;;;;;8.93;77.36;100087.63;5045574;28;20426;-76
2023/01/14 11:12:52;;;;;;;;;;;;;;;8.77;77.72;100077.16;5057870;28;19923;-76
2023/01/14 11:15:55;;;;;;;;;;;;;;;8.75;77.67;100072.03;5057845;28;20090;-76
2023/01/14 11:19:14;;;;;;;;;;;;;;;8.98;77.13;100060.38;5045642;28;19919;-76
2023/01/14 11:22:18;;;;;;;;;;;;;;;8.85;77.60;100051.53;5057397;28;19925;-77
2023/01/14 11:25:22;;;;;;;;;;;;;;;8.88;77.63;100051.38;5074508;28;19935;-76
2023/01/14 11:28:25;;;;;;;;;;;;;;;8.95;77.52;100034.47;5074340;28;19919;-78
2023/01/14 11:31:30;;;;;;;;;;;;;;;8.83;77.99;100040.34;5053720;28;19982;-78
2023/01/14 11:34:48;;;;;;;;;;;;;;;8.89;77.91;100049.59;5034879;28;20044;-78
2023/01/14 11:37:56;;;;;;;;;;;;;;;8.84;77.63;100019.41;5036156;28;19920;-78
2023/01/14 11:44:46;;;;;;;;;;;;;;;9.07;78.37;99994.69;5054236;28;19919;-79
2023/01/14 11:47:55;;;;;;;;;;;;;;;9.29;78.40;99990.91;5049319;28;19919;-78
2023/01/14 11:51:01;;;;;;;;;;;;;;;9.08;79.55;99982.50;5053787;28;20005;-78
2023/01/14 11:54:19;;;;;;;;;;;;;;;8.92;79.54;99972.06;5041546;28;19922;-78
2023/01/14 11:57:22;;;;;;;;;;;;;;;9.16;80.34;99963.84;5046287;28;19970;-79
2023/01/14 12:00:25;;;;;;;;;;;;;;;9.26;79.24;99965.84;5052318;28;19966;-81
2023/01/14 12:03:48;;;;;;;;;;;;;;;9.28;79.23;99955.31;5070208;28;19938;-79
2023/01/14 12:06:55;;;;;;;;;;;;;;;9.44;80.49;99953.50;5073553;28;19919;-80
2023/01/14 12:10:00;;;;;;;;;;;;;;;9.39;80.92;99942.50;5073655;28;19969;-77
2023/01/14 12:16:52;;;;;;;;;;;;;;;9.23;80.73;99926.88;5053448;28;19955;-79
2023/01/14 12:19:58;;;;;;;;;;;;;;;9.31;80.31;99929.03;5041019;28;19920;-79
2023/01/14 12:23:10;;;;;;;;;;;;;;;9.43;80.40;99915.31;5041589;28;20365;-77
2023/01/14 12:26:23;;;;;;;;;;;;;;;9.60;80.92;99900.44;5051218;28;19966;-77
2023/01/14 12:29:31;;;;;;;;;;;;;;;9.49;81.67;99886.25;5044911;28;19924;-78
2023/01/14 12:32:37;;;;;;;;;;;;;;;9.43;82.28;99881.38;5061037;28;19927;-78
2023/01/14 12:35:50;;;;;;;;;;;;;;;8.95;80.63;99892.84;5070877;28;19966;-78
2023/01/14 12:46:05;;;;;;;;;;;;;;;8.98;81.05;99853.56;5072993;28;19919;-76
2023/01/14 12:49:09;;;;;;;;;;;;;;;8.83;80.13;99857.84;5071366;28;19919;-76
2023/01/14 12:52:21;;;;;;;;;;;;;;;8.77;80.69;99853.81;5072465;28;19939;-79
2023/01/14 12:55:37;;;;;;;;;;;;;;;8.96;80.88;99837.97;5070382;28;20293;-81
2023/01/14 12:58:42;;;;;;;;;;;;;;;8.84;80.90;99817.84;5071124;28;19966;-76
2023/01/14 13:01:54;;;;;;;;;;;;;;;8.74;80.92;99811.44;5073364;28;19923;-75
2023/01/14 13:05:03;;;;;;;;;;;;;;;8.97;80.06;99811.00;5086776;28;19919;-75
2023/01/14 13:08:16;;;;;;;;;;;;;;;9.18;79.08;99797.63;5072293;28;19919;-77
2023/01/14 13:11:25;;;;;;;;;;;;;;;9.21;78.59;99789.63;5072645;28;20010;-75
2023/01/14 13:14:34;;;;;;;;;;;;;;;8.98;79.63;99783.97;5072466;28;19920;-72
2023/01/14 13:17:38;;;;;;;;;;;;;;;9.00;79.78;99791.72;5072842;28;20497;-76
2023/01/14 13:20:46;;;;;;;;;;;;;;;9.04;80.05;99788.84;5071695;28;19919;-75
2023/01/14 13:23:50;;;;;;;;;;;;;;;8.85;80.67;99759.56;5072589;28;20392;-75
2023/01/14 13:26:55;;;;;;;;;;;;;;;9.03;80.23;99755.88;5060478;28;19942;-75
2023/01/14 13:30:16;;;;;;;;;;;;;;;8.79;81.23;99742.47;5072474;28;19962;-74
2023/01/14 13:33:24;;;;;;;;;;;;;;;8.89;81.36;99737.56;5072380;28;20564;-74
2023/01/14 13:36:27;;;;;;;;;;;;;;;9.08;82.06;99726.91;5058601;28;19962;-73
2023/01/14 13:39:32;;;;;;;;;;;;;;;9.21;80.64;99724.44;5076727;28;19931;-73
2023/01/14 13:42:38;;;;;;;;;;;;;;;9.17;80.51;99712.50;5053609;28;19923;-74
2023/01/14 13:45:41;;;;;;;;;;;;;;;9.17;80.48;99704.69;5062842;28;19939;-75
2023/01/14 13:48:49;;;;;;;;;;;;;;;9.27;79.98;99706.63;5065284;28;20276;-73
2023/01/14 13:52:00;;;;;;;;;;;;;;;9.21;79.90;99683.53;5088889;28;20320;-74
2023/01/14 13:55:06;;;;;;;;;;;;;;;9.35;80.18;99667.06;5074071;28;19923;-74
2023/01/14 13:58:42;;;;;;;;;;;;;;;9.30;80.16;99658.66;5062057;28;20003;-74
2023/01/14 14:01:46;;;;;;;;;;;;;;;9.15;80.47;99657.81;5048939;28;20396;-74
2023/01/14 14:04:57;;;;;;;;;;;;;;;9.25;79.82;99673.75;5077621;28;20337;-73
2023/01/14 14:08:03;;;;;;;;;;;;;;;9.21;80.26;99659.22;5072369;28;19973;-74
2023/01/14 14:11:10;;;;;;;;;;;;;;;9.25;80.02;99652.88;5049967;28;19939;-74
2023/01/14 14:14:26;;;;;;;;;;;;;;;9.22;79.99;99661.75;5064248;28;20612;-75
2023/01/14 14:17:32;;;;;;;;;;;;;;;9.26;79.90;99651.97;5057603;28;19966;-75
2023/01/14 14:20:41;;;;;;;;;;;;;;;9.20;80.20;99649.72;5070758;28;19920;-75
2023/01/14 14:23:49;;;;;;;;;;;;;;;9.33;79.96;99640.22;5071177;28;19955;-74
2023/01/14 14:26:53;;;;;;;;;;;;;;;9.31;79.80;99634.25;5072041;28;19918;-75
2023/01/14 14:30:00;;;;;;;;;;;;;;;9.38;79.62;99625.13;5071122;28;19923;-74
2023/01/14 14:33:05;;;;;;;;;;;;;;;9.34;80.40;99617.56;5071797;28;20376;-74
2023/01/14 14:36:09;;;;;;;;;;;;;;;9.63;79.04;99620.97;5071421;28;20522;-74
2023/01/14 14:39:42;;;;;;;;;;;;;;;9.69;78.40;99612.75;5059286;28;19919;-74
2023/01/14 14:42:46;;;;;;;;;;;;;;;9.75;78.19;99601.94;5070665;28;19974;-74
2023/01/14 14:46:06;;;;;;;;;;;;;;;9.69;78.35;99589.28;5071217;28;19920;-74
2023/01/14 14:49:18;;;;;;;;;;;;;;;9.29;80.07;99581.34;5071508;28;20290;-74
2023/01/14 14:52:22;;;;;;;;;;;;;;;9.37;80.04;99567.81;5059026;28;19955;-74
2023/01/14 14:55:47;;;;;;;;;;;;;;;9.44;79.66;99556.88;5074796;28;19919;-73
2023/01/14 14:58:58;;;;;;;;;;;;;;;9.39;79.81;99558.97;5070240;28;20327;-73
2023/01/14 15:02:07;;;;;;;;;;;;;;;9.41;79.96;99554.50;5062551;28;19918;-73
2023/01/14 15:05:18;;;;;;;;;;;;;;;9.48;79.72;99545.34;5075215;28;19922;-72
2023/01/14 15:08:24;;;;;;;;;;;;;;;9.58;79.43;99547.38;5062796;28;19918;-73
2023/01/14 15:11:42;;;;;;;;;;;;;;;9.51;79.66;99552.97;5054877;28;20282;-73
2023/01/14 15:14:56;;;;;;;;;;;;;;;9.54;79.68;99541.50;5054847;28;20622;-73
2023/01/14 15:18:16;;;;;;;;;;;;;;;9.58;79.28;99526.50;5055265;28;19966;-72
2023/01/14 15:21:22;;;;;;;;;;;;;;;9.75;78.97;99528.84;5055117;28;19918;-72
2023/01/14 15:24:27;;;;;;;;;;;;;;;9.61;79.21;99531.50;4712107;28;10000456;-74
2023/01/14 15:27:30;;;;;;;;;;;;;;;9.49;79.71;99523.50;5075010;28;20034;-72
2023/01/14 15:30:34;;;;;;;;;;;;;;;9.61;79.64;99524.50;5074623;28;19971;-73
2023/01/14 15:33:37;;;;;;;;;;;;;;;9.61;79.55;99518.47;5074921;28;20297;-74
2023/01/14 15:36:42;;;;;;;;;;;;;;;9.73;80.73;99525.47;5074945;28;19938;-73
2023/01/14 15:39:46;;;;;;;;;;;;;;;9.48;80.53;99516.63;5074931;28;19920;-77
2023/01/14 15:42:50;;;;;;;;;;;;;;;9.62;80.32;99512.31;5051135;28;19919;-77
2023/01/14 15:45:55;;;;;;;;;;;;;;;9.77;79.20;99516.53;5074876;28;19934;-77
2023/01/14 15:49:19;;;;;;;;;;;;;;;9.67;79.79;99500.63;5073760;28;19923;-76
2023/01/14 15:52:37;;;;;;;;;;;;;;;9.63;79.96;99499.13;5070571;28;20345;-76
2023/01/14 15:55:41;;;;;;;;;;;;;;;9.76;79.59;99491.34;5071120;28;19963;-77
2023/01/14 15:58:53;;;;;;;;;;;;;;;9.76;79.92;99486.13;5071965;28;19923;-79
2023/01/14 16:01:56;;;;;;;;;;;;;;;9.79;79.95;99478.09;5059885;28;20392;-77
2023/01/14 16:05:19;;;;;;;;;;;;;;;9.68;80.40;99472.75;5072842;28;20004;-76
2023/01/14 16:08:24;;;;;;;;;;;;;;;9.70;80.20;99468.25;5073989;28;19966;-76
2023/01/14 16:11:36;;;;;;;;;;;;;;;9.78;80.47;99466.00;5072882;28;19923;-81
2023/01/14 16:14:41;;;;;;;;;;;;;;;9.75;80.24;99466.19;5073755;28;19919;-77
2023/01/14 16:17:44;;;;;;;;;;;;;;;9.83;80.38;99455.22;5073873;28;19940;-76
2023/01/14 16:20:48;;;;;;;;;;;;;;;9.87;80.04;99460.16;5073960;28;19919;-77
2023/01/14 16:23:51;;;;;;;;;;;;;;;9.75;80.78;99450.53;5074036;28;20290;-77
2023/01/14 16:27:38;;;;;;;;;;;;;;;;;;;;;
2023/01/14 16:30:49;;;;;;;;;;;;;;;9.85;80.52;99448.97;5070078;28;19969;-77
2023/01/14 16:33:55;;;;;;;;;;;;;;;10.00;79.76;99434.91;5070041;28;19922;-77
2023/01/14 16:37:24;;;;;;;;;;;;;;;9.88;80.52;99425.28;5070518;28;20021;-77
2023/01/14 16:40:40;;;;;;;;;;;;;;;10.05;80.08;99425.91;5050654;28;19963;-77
2023/01/14 16:43:44;;;;;;;;;;;;;;;10.00;80.31;99418.41;5050012;28;20619;-76
2023/01/14 16:46:46;;;;;;;;;;;;;;;10.04;80.33;99414.63;5050169;28;20317;-77
2023/01/14 16:49:50;;;;;;;;;;;;;;;10.02;80.17;99414.75;5057516;28;20363;-75
2023/01/14 16:52:53;;;;;;;;;;;;;;;10.13;80.16;99400.13;5070052;28;19931;-76
2023/01/14 16:55:57;;;;;;;;;;;;;;;10.22;79.66;99408.16;5057418;28;19959;-75
2023/01/14 16:59:00;;;;;;;;;;;;;;;9.88;81.44;99421.81;5057177;28;19919;-76
2023/01/14 17:02:06;;;;;;;;;;;;;;;9.93;81.33;99404.91;5069032;28;19918;-76
2023/01/14 17:05:09;;;;;;;;;;;;;;;9.80;82.46;99383.19;5067252;28;19992;-77